createdAt,value
2018-09-04T00:02:06.496Z,96777.70
2018-09-04T00:04:33.732Z,96784.44
2018-09-04T00:07:00.972Z,96778.77
2018-09-04T00:09:28.252Z,96775.81
2018-09-04T00:11:55.400Z,96778.06
2018-09-04T00:14:22.572Z,96775.19
2018-09-04T00:16:49.772Z,96780.88
2018-09-04T00:19:16.907Z,96778.41
2018-09-04T00:21:44.124Z,96780.02
2018-09-04T00:24:11.284Z,96795.25
2018-09-04T00:26:38.483Z,96787.25
2018-09-04T00:29:05.668Z,96786.83
2018-09-04T00:31:32.927Z,96779.33
2018-09-04T00:34:00.109Z,96782.00
2018-09-04T00:36:27.288Z,96779.23
2018-09-04T00:38:54.465Z,96781.69
2018-09-04T00:41:21.573Z,96783.31
2018-09-04T00:43:48.759Z,96786.05
2018-09-04T00:46:15.936Z,96782.75
2018-09-04T00:48:43.156Z,96788.36
2018-09-04T00:51:10.357Z,96780.29
2018-09-04T00:56:11.452Z,96785.34
2018-09-04T00:58:38.589Z,96779.94
2018-09-04T01:01:05.781Z,96783.52
2018-09-04T01:03:32.974Z,96781.62
2018-09-04T01:06:00.116Z,96779.73
2018-09-04T01:08:28.156Z,96782.47
2018-09-04T01:10:55.418Z,96780.50
2018-09-04T01:13:22.564Z,96781.76
2018-09-04T01:15:49.820Z,96780.98
2018-09-04T01:18:16.977Z,96780.00
2018-09-04T01:20:44.125Z,96779.04
2018-09-04T01:23:11.360Z,96774.54
2018-09-04T01:25:38.992Z,96776.94
2018-09-04T01:28:06.940Z,96778.33
2018-09-04T01:30:34.105Z,96779.66
2018-09-04T01:33:01.292Z,96781.08
2018-09-04T01:35:28.503Z,96779.11
2018-09-04T01:37:55.761Z,96777.36
2018-09-04T01:40:22.900Z,96773.62
2018-09-04T01:42:50.045Z,96775.88
2018-09-04T01:45:17.200Z,96773.83
2018-09-04T01:47:44.322Z,96781.42
2018-09-04T01:50:11.492Z,96778.83
2018-09-04T01:52:38.616Z,96775.67
2018-09-04T01:55:05.784Z,96781.85
2018-09-04T01:57:32.919Z,96777.75
2018-09-04T02:00:00.073Z,96778.05
2018-09-04T02:02:27.280Z,96778.46
2018-09-04T02:04:54.459Z,96781.34
2018-09-04T02:07:21.641Z,96776.36
2018-09-04T02:09:48.752Z,96775.31
2018-09-04T02:12:15.936Z,96773.41
2018-09-04T02:14:43.103Z,96777.67
2018-09-04T02:17:10.327Z,96776.22
2018-09-04T02:19:37.502Z,96775.52
2018-09-04T02:22:04.905Z,96778.45
2018-09-04T02:24:32.204Z,96779.56
2018-09-04T02:26:59.340Z,96782.75
2018-09-04T02:29:26.491Z,96785.91
2018-09-04T02:31:53.720Z,96779.00
2018-09-04T02:34:20.852Z,96786.80
2018-09-04T02:36:47.961Z,96789.11
2018-09-04T02:39:15.180Z,96782.59
2018-09-04T02:41:42.360Z,96784.44
2018-09-04T02:44:09.683Z,96781.25
2018-09-04T02:46:37.257Z,96774.38
2018-09-04T02:49:04.980Z,96775.99
2018-09-04T02:51:32.081Z,96768.27
2018-09-04T02:53:59.272Z,96762.24
2018-09-04T02:56:26.414Z,96773.68
2018-09-04T02:58:53.780Z,96768.25
2018-09-04T03:01:20.900Z,96770.91
2018-09-04T03:03:48.054Z,96765.75
2018-09-04T03:06:15.288Z,96749.16
2018-09-04T03:08:42.441Z,96760.18
2018-09-04T03:11:09.612Z,96754.71
2018-09-04T03:13:36.937Z,96755.13
2018-09-04T03:16:04.051Z,96760.39
2018-09-04T03:18:31.299Z,96757.84
2018-09-04T03:20:58.544Z,96766.05
2018-09-04T03:23:25.778Z,96762.65
2018-09-04T03:25:53.033Z,96760.83
2018-09-04T03:28:20.201Z,96754.86
2018-09-04T03:30:47.421Z,96760.41
2018-09-04T03:33:14.688Z,96753.36
2018-09-04T03:35:41.777Z,96746.06
2018-09-04T03:38:08.904Z,96748.27
2018-09-04T03:40:36.165Z,96744.03
2018-09-04T03:43:03.340Z,96743.27
2018-09-04T03:45:30.502Z,96740.39
2018-09-04T03:47:57.716Z,96747.50
2018-09-04T03:50:24.864Z,96750.48
2018-09-04T03:52:52.093Z,96749.71
2018-09-04T03:55:19.241Z,96753.92
2018-09-04T03:57:46.356Z,96753.18
2018-09-04T04:00:13.660Z,96762.70
2018-09-04T04:02:41.026Z,96769.66
2018-09-04T04:05:08.173Z,96775.83
2018-09-04T04:07:35.429Z,96769.94
2018-09-04T04:10:02.545Z,96772.41
2018-09-04T04:12:29.692Z,96778.85
2018-09-04T04:14:56.868Z,96781.17
2018-09-04T04:17:24.059Z,96784.46
2018-09-04T04:19:51.327Z,96785.23
2018-09-04T04:22:18.507Z,96781.52
2018-09-04T04:24:45.624Z,96786.67
2018-09-04T04:27:12.911Z,96783.59
2018-09-04T04:29:40.096Z,96786.39
2018-09-04T04:32:07.250Z,96782.25
2018-09-04T04:34:34.477Z,96787.05
2018-09-04T04:37:01.638Z,96784.94
2018-09-04T04:39:28.748Z,96789.50
2018-09-04T04:41:56.052Z,96787.66
2018-09-04T04:44:23.149Z,96789.08
2018-09-04T04:46:50.335Z,96786.66
2018-09-04T04:49:17.461Z,96791.64
2018-09-04T04:51:44.636Z,96791.16
2018-09-04T04:54:11.844Z,96794.45
2018-09-04T04:56:38.964Z,96801.19
2018-09-04T04:59:06.192Z,96799.00
2018-09-04T05:01:33.431Z,96801.61
2018-09-04T05:04:00.650Z,96805.39
2018-09-04T05:06:27.819Z,96793.67
2018-09-04T05:08:54.912Z,96800.76
2018-09-04T05:11:22.112Z,96800.97
2018-09-04T05:13:49.376Z,96797.00
2018-09-04T05:16:17.320Z,96799.38
2018-09-04T05:18:44.459Z,96796.38
2018-09-04T05:21:11.593Z,96797.28
2018-09-04T05:23:38.748Z,96798.40
2018-09-04T05:26:05.916Z,96797.78
2018-09-04T05:28:33.057Z,96798.27
2018-09-04T05:31:00.256Z,96802.02
2018-09-04T05:33:31.375Z,96801.48
2018-09-04T05:35:58.873Z,96804.83
2018-09-04T05:38:25.980Z,96807.11
2018-09-04T05:40:53.117Z,96804.41
2018-09-04T05:43:56.364Z,96807.36
2018-09-04T05:46:57.229Z,96812.19
2018-09-04T05:49:27.719Z,96808.75
2018-09-04T05:51:54.859Z,96807.97
2018-09-04T05:54:22.093Z,96817.47
2018-09-04T05:56:49.186Z,96819.19
2018-09-04T05:59:16.699Z,96810.55
2018-09-04T06:01:43.913Z,96807.92
2018-09-04T06:04:11.021Z,96819.71
2018-09-04T06:06:38.248Z,96816.14
2018-09-04T06:09:05.625Z,96818.77
2018-09-04T06:11:32.757Z,96817.16
2018-09-04T06:13:59.936Z,96815.78
2018-09-04T06:16:27.053Z,96817.92
2018-09-04T06:18:54.229Z,96812.97
2018-09-04T06:21:21.293Z,96818.62
2018-09-04T06:23:48.437Z,96818.03
2018-09-04T06:26:15.646Z,96812.20
2018-09-04T06:28:42.793Z,96815.43
2018-09-04T06:31:09.900Z,96812.30
2018-09-04T06:33:37.118Z,96815.78
2018-09-04T06:36:05.008Z,96810.53
2018-09-04T06:38:32.188Z,96812.65
2018-09-04T06:41:00.040Z,96815.17
2018-09-04T06:43:27.183Z,96812.67
2018-09-04T06:45:54.294Z,96811.95
2018-09-04T06:48:21.493Z,96811.34
2018-09-04T06:50:48.672Z,96820.52
2018-09-04T06:53:15.987Z,96827.84
2018-09-04T06:55:43.202Z,96821.88
2018-09-04T06:58:10.365Z,96827.14
2018-09-04T07:00:37.577Z,96831.28
2018-09-04T07:03:04.768Z,96831.58
2018-09-04T07:05:31.955Z,96828.36
2018-09-04T07:07:59.078Z,96827.28
2018-09-04T07:10:26.223Z,96818.59
2018-09-04T07:12:53.357Z,96827.93
2018-09-04T07:15:20.557Z,96827.28
2018-09-04T07:17:47.665Z,96829.67
2018-09-04T07:20:14.849Z,96834.16
2018-09-04T07:22:41.980Z,96832.28
2018-09-04T07:25:09.133Z,96836.98
2018-09-04T07:27:36.289Z,96841.97
2018-09-04T07:30:04.721Z,96838.59
2018-09-04T07:32:31.873Z,96844.85
2018-09-04T07:34:58.996Z,96848.15
2018-09-04T07:37:26.135Z,96847.80
2018-09-04T07:39:53.280Z,96841.57
2018-09-04T07:42:20.445Z,96842.34
2018-09-04T07:44:47.593Z,96845.99
2018-09-04T07:47:14.803Z,96847.95
2018-09-04T07:49:42.080Z,96845.43
2018-09-04T07:52:09.173Z,96852.38
2018-09-04T07:54:36.360Z,96855.60
2018-09-04T07:57:03.539Z,96859.81
2018-09-04T07:59:30.892Z,96859.91
2018-09-04T08:01:58.165Z,96857.95
2018-09-04T08:04:25.332Z,96858.02
2018-09-04T08:06:52.458Z,96858.50
2018-09-04T08:09:19.709Z,96860.69
2018-09-04T08:11:46.908Z,96858.94
2018-09-04T08:14:14.136Z,96858.45
2018-09-04T08:16:41.319Z,96861.94
2018-09-04T08:19:08.465Z,96865.34
2018-09-04T08:21:36.072Z,96861.02
2018-09-04T08:24:07.648Z,96856.50
2018-09-04T08:26:34.802Z,96855.49
2018-09-04T08:29:02.132Z,96854.81
2018-09-04T08:31:29.289Z,96855.88
2018-09-04T08:33:56.639Z,96857.69
2018-09-04T08:36:23.790Z,96863.92
2018-09-04T08:38:51.517Z,96853.70
2018-09-04T08:41:19.125Z,96858.36
2018-09-04T08:43:46.568Z,96857.28
2018-09-04T08:46:13.720Z,96853.39
2018-09-04T08:48:40.950Z,96855.51
2018-09-04T08:51:08.054Z,96850.52
2018-09-04T08:53:35.262Z,96854.00
2018-09-04T08:56:02.307Z,96858.45
2018-09-04T08:58:29.541Z,96854.80
2018-09-04T09:00:56.881Z,96856.09
2018-09-04T09:03:24.249Z,96855.88
2018-09-04T09:05:51.689Z,96857.05
2018-09-04T09:08:18.845Z,96853.09
2018-09-04T09:10:45.993Z,96855.89
2018-09-04T09:13:13.132Z,96859.07
2018-09-04T09:15:40.453Z,96851.20
2018-09-04T09:18:07.592Z,96856.28
2018-09-04T09:20:34.860Z,96851.82
2018-09-04T09:23:02.078Z,96856.73
2018-09-04T09:25:29.212Z,96843.30
2018-09-04T09:27:56.485Z,96839.10
2018-09-04T09:30:23.645Z,96842.93
2018-09-04T09:32:50.812Z,96845.98
2018-09-04T09:35:18.198Z,96843.36
2018-09-04T09:37:45.273Z,96846.36
2018-09-04T09:40:12.592Z,96844.73
2018-09-04T09:42:39.952Z,96847.19
2018-09-04T09:45:07.194Z,96847.67
2018-09-04T09:47:38.915Z,96853.48
2018-09-04T09:50:06.059Z,96850.61
2018-09-04T09:52:33.298Z,96845.67
2018-09-04T09:55:00.425Z,96841.08
2018-09-04T09:57:27.565Z,96839.44
2018-09-04T09:59:54.814Z,96838.33
2018-09-04T10:02:26.489Z,96826.58
2018-09-04T10:04:53.796Z,96822.05
2018-09-04T10:07:20.952Z,96819.01
2018-09-04T10:09:48.145Z,96815.94
2018-09-04T10:12:15.447Z,96790.20
2018-09-04T10:14:42.582Z,96815.20
2018-09-04T10:17:09.909Z,96807.16
2018-09-04T10:19:37.108Z,96805.77
2018-09-04T10:22:04.516Z,96813.08
2018-09-04T10:24:31.748Z,96809.98
2018-09-04T10:26:58.914Z,96800.37
2018-09-04T10:29:26.408Z,96814.78
2018-09-04T10:31:53.563Z,96809.30
2018-09-04T10:34:20.738Z,96806.00
2018-09-04T10:36:47.846Z,96808.13
2018-09-04T10:39:21.321Z,96814.44
2018-09-04T10:41:48.433Z,96817.99
2018-09-04T10:44:15.812Z,96810.53
2018-09-04T10:46:42.941Z,96819.98
2018-09-04T10:49:10.133Z,96815.09
2018-09-04T10:51:37.365Z,96821.14
2018-09-04T10:54:04.899Z,96818.52
2018-09-04T10:56:32.108Z,96815.05
2018-09-04T10:58:59.292Z,96817.30
2018-09-04T11:01:26.539Z,96814.05
2018-09-04T11:03:53.766Z,96801.59
2018-09-04T11:06:21.080Z,96809.47
2018-09-04T11:08:48.259Z,96808.69
2018-09-04T11:11:15.440Z,96805.91
2018-09-04T11:13:42.616Z,96802.23
2018-09-04T11:16:09.808Z,96799.33
2018-09-04T11:18:37.005Z,96800.04
2018-09-04T11:21:04.260Z,96803.05
2018-09-04T11:23:38.272Z,96807.35
2018-09-04T11:26:05.493Z,96800.45
2018-09-04T11:28:34.789Z,96806.58
2018-09-04T11:31:01.894Z,96801.00
2018-09-04T11:33:29.069Z,96807.70
2018-09-04T11:35:56.282Z,96805.75
2018-09-04T11:38:23.435Z,96802.97
2018-09-04T11:40:50.724Z,96811.32
2018-09-04T11:43:17.836Z,96810.77
2018-09-04T11:45:44.994Z,96815.53
2018-09-04T11:48:15.119Z,96809.19
2018-09-04T11:50:42.745Z,96818.20
2018-09-04T11:53:09.833Z,96809.23
2018-09-04T11:55:37.010Z,96810.42
2018-09-04T11:58:11.071Z,96809.91
2018-09-04T12:00:44.353Z,96812.58
2018-09-04T12:03:12.764Z,96810.08
2018-09-04T12:05:39.991Z,96818.64
2018-09-04T12:08:07.138Z,96822.64
2018-09-04T12:10:34.571Z,96809.53
2018-09-04T12:13:08.614Z,96810.05
2018-09-04T12:15:39.629Z,96809.94
2018-09-04T12:18:07.433Z,96804.19
2018-09-04T12:20:41.768Z,96802.20
2018-09-04T12:23:09.270Z,96814.58
2018-09-04T12:25:36.661Z,96808.34
2018-09-04T12:28:04.047Z,96806.98
2018-09-04T12:30:31.330Z,96805.00
2018-09-04T12:32:59.607Z,96803.36
2018-09-04T12:35:26.709Z,96800.21
2018-09-04T12:37:53.940Z,96793.20
2018-09-04T12:40:21.090Z,96799.86
2018-09-04T12:42:48.346Z,96787.78
2018-09-04T12:45:15.496Z,96792.70
2018-09-04T12:47:42.619Z,96792.02
2018-09-04T12:50:09.881Z,96784.85
2018-09-04T12:52:36.997Z,96783.92
2018-09-04T12:55:04.908Z,96784.55
2018-09-04T12:57:39.065Z,96790.17
2018-09-04T13:00:07.213Z,96787.30
2018-09-04T13:02:34.337Z,96783.53
2018-09-04T13:05:01.493Z,96786.00
2018-09-04T13:07:28.648Z,96785.24
2018-09-04T13:09:55.782Z,96788.03
2018-09-04T13:12:22.920Z,96787.71
2018-09-04T13:14:50.146Z,96792.78
2018-09-04T13:17:17.473Z,96790.16
2018-09-04T13:19:44.747Z,96788.91
2018-09-04T13:22:11.910Z,96789.31
2018-09-04T13:24:39.130Z,96794.84
2018-09-04T13:27:06.332Z,96795.52
2018-09-04T13:29:33.465Z,96799.39
2018-09-04T13:32:00.624Z,96793.59
2018-09-04T13:34:27.796Z,96797.59
2018-09-04T13:36:55.033Z,96796.83
2018-09-04T13:39:22.216Z,96795.45
2018-09-04T13:41:49.408Z,96795.11
2018-09-04T13:44:16.610Z,96801.01
2018-09-04T13:46:43.776Z,96796.01
2018-09-04T13:49:11.020Z,96786.73
2018-09-04T13:51:38.257Z,96784.69
2018-09-04T13:54:05.348Z,96789.20
2018-09-04T13:56:32.572Z,96792.98
2018-09-04T13:58:59.795Z,96788.94
2018-09-04T14:01:26.980Z,96788.91
2018-09-04T14:03:54.325Z,96787.75
2018-09-04T14:06:21.474Z,96786.52
2018-09-04T14:08:55.369Z,96787.19
2018-09-04T14:11:22.631Z,96788.97
2018-09-04T14:13:49.811Z,96786.77
2018-09-04T14:16:19.076Z,96793.42
2018-09-04T14:18:46.372Z,96793.97
2018-09-04T14:21:13.585Z,96782.14
2018-09-04T14:23:40.727Z,96790.48
2018-09-04T14:26:07.979Z,96778.03
2018-09-04T14:28:42.041Z,96779.73
2018-09-04T14:31:02.609Z,96777.24
2018-09-04T14:33:29.855Z,96772.50
2018-09-04T14:35:57.020Z,96777.58
2018-09-04T14:38:24.204Z,96783.12
2018-09-04T14:40:51.395Z,96784.14
2018-09-04T14:43:18.520Z,96779.05
2018-09-04T14:45:45.832Z,96777.24
2018-09-04T14:48:13.315Z,96776.79
2018-09-04T14:50:40.496Z,96789.20
2018-09-04T14:53:08.077Z,96787.69
2018-09-04T14:55:35.261Z,96785.14
2018-09-04T14:58:02.369Z,96789.39
2018-09-04T15:00:29.545Z,96783.02
2018-09-04T15:02:56.701Z,96785.31
2018-09-04T15:05:23.862Z,96780.31
2018-09-04T15:07:51.212Z,96784.73
2018-09-04T15:10:18.337Z,96784.56
2018-09-04T15:12:45.530Z,96789.69
2018-09-04T15:15:12.769Z,96781.34
2018-09-04T15:17:40.001Z,96779.88
2018-09-04T15:20:14.117Z,96778.70
2018-09-04T15:22:41.260Z,96778.23
2018-09-04T15:25:08.470Z,96770.41
2018-09-04T15:27:35.669Z,96774.53
2018-09-04T15:30:03.036Z,96777.60
2018-09-04T15:32:30.257Z,96781.41
2018-09-04T15:34:57.485Z,96777.56
2018-09-04T15:37:24.647Z,96776.31
2018-09-04T15:39:51.818Z,96775.42
2018-09-04T15:42:18.941Z,96773.05
2018-09-04T15:44:46.109Z,96774.42
2018-09-04T15:47:13.394Z,96785.00
2018-09-04T15:49:45.595Z,96783.14
2018-09-04T15:52:13.236Z,96782.79
2018-09-04T15:54:40.404Z,96784.20
2018-09-04T15:57:07.636Z,96784.59
2018-09-04T15:59:34.811Z,96794.98
2018-09-04T16:02:02.028Z,96797.52
2018-09-04T16:04:29.243Z,96809.90
2018-09-04T16:06:56.488Z,96818.83
2018-09-04T16:09:30.413Z,96819.03
2018-09-04T16:11:57.882Z,96830.50
2018-09-04T16:14:25.088Z,96835.02
2018-09-04T16:16:52.232Z,96829.89
2018-09-04T16:19:19.531Z,96834.76
2018-09-04T16:21:46.684Z,96832.26
2018-09-04T16:24:13.910Z,96834.23
2018-09-04T16:26:41.244Z,96840.23
2018-09-04T16:29:08.397Z,96846.13
2018-09-04T16:31:35.575Z,96849.95
2018-09-04T16:34:02.717Z,96853.77
2018-09-04T16:36:29.873Z,96854.50
2018-09-04T16:38:57.057Z,96845.09
2018-09-04T16:42:01.467Z,96860.20
2018-09-04T16:44:28.644Z,96866.17
2018-09-04T16:46:55.910Z,96868.52
2018-09-04T16:49:25.593Z,96866.41
2018-09-04T16:51:53.052Z,96866.82
2018-09-04T16:54:21.477Z,96866.59
2018-09-04T16:56:48.756Z,96871.97
2018-09-04T16:59:15.896Z,96872.69
2018-09-04T17:01:43.058Z,96871.39
2018-09-04T17:04:10.311Z,96873.77
2018-09-04T17:06:37.457Z,96866.67
2018-09-04T17:09:05.297Z,96865.90
2018-09-04T17:11:39.329Z,96864.71
2018-09-04T17:14:06.955Z,96871.98
2018-09-04T17:16:34.124Z,96871.09
2018-09-04T17:19:01.340Z,96867.93
2018-09-04T17:21:28.591Z,96869.67
2018-09-04T17:23:55.947Z,96877.05
2018-09-04T17:26:23.198Z,96876.85
2018-09-04T17:28:50.377Z,96877.86
2018-09-04T17:31:17.686Z,96886.75
2018-09-04T17:33:44.837Z,96881.94
2018-09-04T17:36:12.115Z,96890.43
2018-09-04T17:38:39.316Z,96889.95
2018-09-04T17:41:06.417Z,96896.11
2018-09-04T17:43:33.520Z,96899.67
2018-09-04T17:46:00.823Z,96903.05
2018-09-04T17:48:28.001Z,96903.44
2018-09-04T17:50:55.185Z,96908.20
2018-09-04T17:53:26.452Z,96907.13
2018-09-04T17:55:53.688Z,96899.27
2018-09-04T17:58:20.919Z,96898.70
2018-09-04T18:00:48.175Z,96894.58
2018-09-04T18:03:15.366Z,96897.52
2018-09-04T18:05:42.535Z,96906.50
2018-09-04T18:08:09.853Z,96916.49
2018-09-04T18:10:37.121Z,96910.53
2018-09-04T18:13:04.313Z,96911.20
2018-09-04T18:15:31.608Z,96919.20
2018-09-04T18:17:58.801Z,96920.05
2018-09-04T18:20:25.973Z,96917.58
2018-09-04T18:22:53.256Z,96921.78
2018-09-04T18:25:21.201Z,96923.92
2018-09-04T18:27:48.318Z,96932.59
2018-09-04T18:30:15.484Z,96936.92
2018-09-04T18:32:42.637Z,96949.28
2018-09-04T18:35:09.795Z,96945.20
2018-09-04T18:37:37.001Z,96943.69
2018-09-04T18:40:04.559Z,96941.75
2018-09-04T18:42:31.769Z,96940.23
2018-09-04T18:44:58.892Z,96947.53
2018-09-04T18:47:25.989Z,96889.88
2018-09-04T18:49:53.232Z,96962.84
2018-09-04T18:52:20.466Z,96960.97
2018-09-04T18:54:47.641Z,96967.92
2018-09-04T18:57:14.848Z,96960.16
2018-09-04T18:59:41.981Z,96959.59
2018-09-04T19:02:09.160Z,96963.33
2018-09-04T19:04:36.310Z,96964.78
2018-09-04T19:07:03.453Z,96963.19
2018-09-04T19:09:30.637Z,96965.50
2018-09-04T19:12:04.752Z,96966.89
2018-09-04T19:14:32.041Z,96970.91
2018-09-04T19:16:59.351Z,96975.82
2018-09-04T19:19:27.077Z,96977.73
2018-09-04T19:21:54.220Z,96973.84
2018-09-04T19:24:21.484Z,96984.27
2018-09-04T19:26:48.693Z,96977.73
2018-09-04T19:29:15.937Z,96978.75
2018-09-04T19:31:43.232Z,96977.94
2018-09-04T19:34:10.347Z,96970.47
2018-09-04T19:36:37.724Z,96969.22
2018-09-04T19:39:06.792Z,96973.42
2018-09-04T19:41:34.065Z,96972.24
2018-09-04T19:46:35.145Z,96983.33
2018-09-04T19:49:02.382Z,96985.85
2018-09-04T19:51:29.602Z,96983.95
2018-09-04T19:53:56.769Z,96980.50
2018-09-04T19:56:27.012Z,96984.52
2018-09-04T19:58:54.213Z,96986.17
2018-09-04T20:01:22.102Z,96989.70
2018-09-04T20:03:50.597Z,96987.75
2018-09-04T20:06:17.956Z,96989.33
2018-09-04T20:08:45.112Z,96991.55
2018-09-04T20:11:12.293Z,96993.77
2018-09-04T20:13:39.444Z,96996.59
2018-09-04T20:16:06.659Z,96993.48
2018-09-04T20:18:34.297Z,96997.64
2018-09-04T20:21:01.511Z,97000.66
2018-09-04T20:23:28.660Z,96997.49
2018-09-04T20:25:55.945Z,96998.42
2018-09-04T20:28:23.112Z,97000.06
2018-09-04T20:30:50.395Z,96997.26
2018-09-04T20:33:18.352Z,96999.34
2018-09-04T20:35:45.484Z,96996.80
2018-09-04T20:38:12.577Z,96990.35
2018-09-04T20:40:39.780Z,96989.13
2018-09-04T20:43:06.900Z,96993.86
2018-09-04T20:45:34.121Z,96992.30
2018-09-04T20:48:01.429Z,96994.55
2018-09-04T20:50:28.869Z,96994.96
2018-09-04T20:53:02.934Z,96997.41
2018-09-04T20:55:30.026Z,96992.01
2018-09-04T20:58:08.610Z,96992.88
2018-09-04T21:00:47.228Z,96989.13
2018-09-04T21:03:25.999Z,96996.89
2018-09-04T21:06:04.780Z,96995.34
2018-09-04T21:08:58.573Z,96993.08
2018-09-04T21:11:25.768Z,96988.05
2018-09-04T21:13:52.905Z,96992.34
2018-09-04T21:16:20.013Z,96990.66
2018-09-04T21:18:47.526Z,96990.15
2018-09-04T21:21:14.791Z,96991.99
2018-09-04T21:23:41.933Z,96993.53
2018-09-04T21:26:09.163Z,96994.31
2018-09-04T21:28:36.956Z,97002.75
2018-09-04T21:31:04.302Z,96999.51
2018-09-04T21:33:31.477Z,96998.59
2018-09-04T21:35:58.585Z,96998.17
2018-09-04T21:38:25.816Z,96999.16
2018-09-04T21:40:53.048Z,97000.48
2018-09-04T21:43:20.205Z,96998.26
2018-09-04T21:45:47.496Z,97005.44
2018-09-04T21:48:15.297Z,97006.19
2018-09-04T21:50:42.432Z,97001.39
2018-09-04T21:53:09.732Z,97003.13
2018-09-04T21:55:36.836Z,97002.72
2018-09-04T21:58:04.253Z,97004.53
2018-09-04T22:00:31.639Z,97002.16
2018-09-04T22:02:58.817Z,97006.89
2018-09-04T22:05:26.529Z,96998.73
2018-09-04T22:07:54.696Z,97006.55
2018-09-04T22:10:21.905Z,97007.94
2018-09-04T22:12:49.024Z,97012.60
2018-09-04T22:15:16.448Z,97010.48
2018-09-04T22:17:43.589Z,97013.13
2018-09-04T22:20:10.701Z,97009.34
2018-09-04T22:22:37.817Z,97012.17
2018-09-04T22:25:05.054Z,97019.96
2018-09-04T22:27:32.276Z,97010.40
2018-09-04T22:29:59.489Z,97012.09
2018-09-04T22:32:26.745Z,97020.87
2018-09-04T22:34:53.912Z,97019.98
2018-09-04T22:37:21.030Z,97018.97
2018-09-04T22:39:48.143Z,97022.06
2018-09-04T22:42:15.412Z,97020.52
2018-09-04T22:44:42.528Z,97018.80
2018-09-04T22:47:09.673Z,97011.84
2018-09-04T22:49:37.440Z,97020.73
2018-09-04T22:52:04.604Z,97018.20
2018-09-04T22:54:31.732Z,97014.69
2018-09-04T22:56:58.953Z,97023.72
2018-09-04T22:59:26.852Z,96958.20
2018-09-04T23:01:54.045Z,97021.43
2018-09-04T23:04:21.520Z,97026.98
2018-09-04T23:06:48.709Z,97029.66
2018-09-04T23:09:15.821Z,97034.22
2018-09-04T23:11:43.129Z,97027.89
2018-09-04T23:14:10.325Z,97030.97
2018-09-04T23:16:37.472Z,97026.02
2018-09-04T23:19:04.680Z,97028.84
2018-09-04T23:21:31.816Z,97025.46
2018-09-04T23:23:59.090Z,97019.70
2018-09-04T23:26:26.269Z,97025.32
2018-09-04T23:28:53.365Z,97025.59
2018-09-04T23:31:20.678Z,97021.94
2018-09-04T23:33:48.152Z,97023.75
2018-09-04T23:36:15.317Z,97026.88
2018-09-04T23:38:42.567Z,97026.02
2018-09-04T23:41:09.667Z,97022.45
2018-09-04T23:43:36.835Z,97020.50
2018-09-04T23:46:04.001Z,97028.07
2018-09-04T23:48:31.082Z,97025.11
2018-09-04T23:51:00.004Z,97026.23
2018-09-04T23:53:27.324Z,97025.06
2018-09-04T23:55:54.472Z,97019.71
2018-09-04T23:58:21.615Z,97012.91
